sensor_id;sensor_type;location;lat;lon;timestamp;P1;durP1;ratioP1;P2;durP2;ratioP2
40204;SDS011;26963;42.666;23.366;2023-01-04T00:00:30;13.95;;;11.15;;
40204;SDS011;26963;42.666;23.366;2023-01-04T00:02:56;12.55;;;10.65;;
40204;SDS011;26963;42.666;23.366;2023-01-04T00:05:21;16.02;;;11.32;;
40204;SDS011;26963;42.666;23.366;2023-01-04T00:07:47;13.65;;;10.50;;
40204;SDS011;26963;42.666;23.366;2023-01-04T00:10:13;20.83;;;15.40;;
40204;SDS011;26963;42.666;23.366;2023-01-04T00:12:38;35.28;;;23.35;;
40204;SDS011;26963;42.666;23.366;2023-01-04T00:15:04;29.25;;;20.25;;
40204;SDS011;26963;42.666;23.366;2023-01-04T00:17:30;32.40;;;24.45;;
40204;SDS011;26963;42.666;23.366;2023-01-04T00:19:55;20.83;;;15.65;;
40204;SDS011;26963;42.666;23.366;2023-01-04T00:22:21;15.82;;;13.05;;
40204;SDS011;26963;42.666;23.366;2023-01-04T00:24:46;17.42;;;12.05;;
40204;SDS011;26963;42.666;23.366;2023-01-04T00:27:12;18.67;;;14.05;;
40204;SDS011;26963;42.666;23.366;2023-01-04T00:29:37;19.75;;;15.27;;
40204;SDS011;26963;42.666;23.366;2023-01-04T00:32:03;15.20;;;11.57;;
40204;SDS011;26963;42.666;23.366;2023-01-04T00:34:28;19.83;;;13.27;;
40204;SDS011;26963;42.666;23.366;2023-01-04T00:36:54;15.85;;;12.38;;
40204;SDS011;26963;42.666;23.366;2023-01-04T00:39:19;14.27;;;11.23;;
40204;SDS011;26963;42.666;23.366;2023-01-04T00:41:46;11.55;;;9.82;;
40204;SDS011;26963;42.666;23.366;2023-01-04T00:44:14;12.02;;;9.68;;
40204;SDS011;26963;42.666;23.366;2023-01-04T00:46:40;13.18;;;10.23;;
40204;SDS011;26963;42.666;23.366;2023-01-04T00:49:10;15.48;;;10.48;;
40204;SDS011;26963;42.666;23.366;2023-01-04T00:51:40;16.13;;;11.07;;
40204;SDS011;26963;42.666;23.366;2023-01-04T00:54:11;18.05;;;10.85;;
40204;SDS011;26963;42.666;23.366;2023-01-04T00:56:39;13.23;;;9.60;;
40204;SDS011;26963;42.666;23.366;2023-01-04T00:59:04;12.98;;;10.05;;
40204;SDS011;26963;42.666;23.366;2023-01-04T01:01:30;12.82;;;10.05;;
40204;SDS011;26963;42.666;23.366;2023-01-04T01:03:57;16.58;;;10.88;;
40204;SDS011;26963;42.666;23.366;2023-01-04T01:06:25;13.00;;;10.65;;
40204;SDS011;26963;42.666;23.366;2023-01-04T01:08:52;13.52;;;10.48;;
40204;SDS011;26963;42.666;23.366;2023-01-04T01:11:19;15.32;;;10.55;;
40204;SDS011;26963;42.666;23.366;2023-01-04T01:13:45;14.43;;;10.15;;
40204;SDS011;26963;42.666;23.366;2023-01-04T01:16:13;26.80;;;17.98;;
40204;SDS011;26963;42.666;23.366;2023-01-04T01:18:40;26.98;;;19.38;;
40204;SDS011;26963;42.666;23.366;2023-01-04T01:21:10;34.55;;;24.45;;
40204;SDS011;26963;42.666;23.366;2023-01-04T01:23:45;34.85;;;25.48;;
40204;SDS011;26963;42.666;23.366;2023-01-04T01:26:13;33.28;;;24.65;;
40204;SDS011;26963;42.666;23.366;2023-01-04T01:28:44;33.63;;;24.63;;
40204;SDS011;26963;42.666;23.366;2023-01-04T01:31:11;29.88;;;21.38;;
40204;SDS011;26963;42.666;23.366;2023-01-04T01:33:40;30.13;;;22.30;;
40204;SDS011;26963;42.666;23.366;2023-01-04T01:36:07;26.63;;;21.02;;
40204;SDS011;26963;42.666;23.366;2023-01-04T01:38:33;27.88;;;19.70;;
40204;SDS011;26963;42.666;23.366;2023-01-04T01:41:00;19.35;;;15.25;;
40204;SDS011;26963;42.666;23.366;2023-01-04T01:43:45;17.75;;;13.93;;
40204;SDS011;26963;42.666;23.366;2023-01-04T01:46:21;16.58;;;12.93;;
40204;SDS011;26963;42.666;23.366;2023-01-04T01:48:51;20.33;;;12.40;;
40204;SDS011;26963;42.666;23.366;2023-01-04T01:51:20;16.55;;;11.88;;
40204;SDS011;26963;42.666;23.366;2023-01-04T01:53:46;15.40;;;11.02;;
40204;SDS011;26963;42.666;23.366;2023-01-04T01:56:18;15.57;;;12.07;;
40204;SDS011;26963;42.666;23.366;2023-01-04T01:58:45;15.23;;;11.43;;
40204;SDS011;26963;42.666;23.366;2023-01-04T02:01:14;15.73;;;10.95;;
40204;SDS011;26963;42.666;23.366;2023-01-04T02:03:41;13.57;;;11.77;;
40204;SDS011;26963;42.666;23.366;2023-01-04T02:06:09;13.77;;;11.63;;
40204;SDS011;26963;42.666;23.366;2023-01-04T02:08:38;12.95;;;10.88;;
40204;SDS011;26963;42.666;23.366;2023-01-04T02:11:05;13.75;;;11.77;;
40204;SDS011;26963;42.666;23.366;2023-01-04T02:13:31;16.88;;;12.23;;
40204;SDS011;26963;42.666;23.366;2023-01-04T02:30:31;14.65;;;12.20;;
40204;SDS011;26963;42.666;23.366;2023-01-04T02:33:19;14.70;;;11.35;;
40204;SDS011;26963;42.666;23.366;2023-01-04T02:35:52;15.77;;;12.32;;
40204;SDS011;26963;42.666;23.366;2023-01-04T02:43:45;17.80;;;12.27;;
40204;SDS011;26963;42.666;23.366;2023-01-04T02:46:47;15.15;;;11.88;;
40204;SDS011;26963;42.666;23.366;2023-01-04T02:49:18;15.05;;;12.50;;
40204;SDS011;26963;42.666;23.366;2023-01-04T02:52:03;17.60;;;13.05;;
40204;SDS011;26963;42.666;23.366;2023-01-04T02:54:29;18.90;;;13.50;;
40204;SDS011;26963;42.666;23.366;2023-01-04T02:57:06;19.13;;;13.27;;
40204;SDS011;26963;42.666;23.366;2023-01-04T02:59:58;17.77;;;13.88;;
40204;SDS011;26963;42.666;23.366;2023-01-04T03:10:59;17.65;;;13.27;;
40204;SDS011;26963;42.666;23.366;2023-01-04T03:13:50;18.05;;;14.68;;
40204;SDS011;26963;42.666;23.366;2023-01-04T03:16:19;18.05;;;13.25;;
40204;SDS011;26963;42.666;23.366;2023-01-04T03:18:49;18.38;;;13.73;;
40204;SDS011;26963;42.666;23.366;2023-01-04T03:21:20;17.40;;;13.93;;
40204;SDS011;26963;42.666;23.366;2023-01-04T03:23:53;16.80;;;14.60;;
40204;SDS011;26963;42.666;23.366;2023-01-04T03:26:48;19.90;;;13.13;;
40204;SDS011;26963;42.666;23.366;2023-01-04T03:29:58;18.38;;;13.25;;
40204;SDS011;26963;42.666;23.366;2023-01-04T03:32:54;16.83;;;12.55;;
40204;SDS011;26963;42.666;23.366;2023-01-04T03:35:44;17.15;;;12.65;;
40204;SDS011;26963;42.666;23.366;2023-01-04T03:38:14;16.10;;;12.63;;
40204;SDS011;26963;42.666;23.366;2023-01-04T03:41:11;18.63;;;13.90;;
40204;SDS011;26963;42.666;23.366;2023-01-04T03:44:07;16.13;;;13.15;;
40204;SDS011;26963;42.666;23.366;2023-01-04T03:46:58;18.73;;;13.68;;
40204;SDS011;26963;42.666;23.366;2023-01-04T03:50:35;20.73;;;13.98;;
40204;SDS011;26963;42.666;23.366;2023-01-04T03:52:45;18.92;;;14.23;;
40204;SDS011;26963;42.666;23.366;2023-01-04T03:55:12;15.85;;;13.80;;
40204;SDS011;26963;42.666;23.366;2023-01-04T03:57:39;18.60;;;13.70;;
40204;SDS011;26963;42.666;23.366;2023-01-04T04:00:10;16.60;;;13.38;;
40204;SDS011;26963;42.666;23.366;2023-01-04T04:02:46;16.98;;;13.18;;
40204;SDS011;26963;42.666;23.366;2023-01-04T04:05:14;16.43;;;13.07;;
40204;SDS011;26963;42.666;23.366;2023-01-04T04:08:04;15.35;;;13.02;;
40204;SDS011;26963;42.666;23.366;2023-01-04T04:10:49;15.13;;;12.75;;
40204;SDS011;26963;42.666;23.366;2023-01-04T04:13:16;17.80;;;13.23;;
40204;SDS011;26963;42.666;23.366;2023-01-04T04:15:41;17.42;;;13.15;;
40204;SDS011;26963;42.666;23.366;2023-01-04T04:18:07;21.02;;;13.55;;
40204;SDS011;26963;42.666;23.366;2023-01-04T04:20:33;19.05;;;13.30;;
40204;SDS011;26963;42.666;23.366;2023-01-04T04:22:58;16.85;;;12.95;;
40204;SDS011;26963;42.666;23.366;2023-01-04T04:25:24;17.08;;;12.48;;
40204;SDS011;26963;42.666;23.366;2023-01-04T04:27:49;15.48;;;12.75;;
40204;SDS011;26963;42.666;23.366;2023-01-04T04:30:15;17.20;;;13.25;;
40204;SDS011;26963;42.666;23.366;2023-01-04T04:32:43;14.70;;;12.02;;
40204;SDS011;26963;42.666;23.366;2023-01-04T04:35:09;16.27;;;12.90;;
40204;SDS011;26963;42.666;23.366;2023-01-04T04:37:34;18.08;;;12.68;;
40204;SDS011;26963;42.666;23.366;2023-01-04T04:40:01;17.20;;;13.88;;
40204;SDS011;26963;42.666;23.366;2023-01-04T04:42:28;16.83;;;12.65;;
40204;SDS011;26963;42.666;23.366;2023-01-04T04:44:53;19.83;;;12.75;;
40204;SDS011;26963;42.666;23.366;2023-01-04T04:47:19;19.42;;;13.60;;
40204;SDS011;26963;42.666;23.366;2023-01-04T04:49:44;16.85;;;12.48;;
40204;SDS011;26963;42.666;23.366;2023-01-04T04:52:10;18.63;;;13.18;;
40204;SDS011;26963;42.666;23.366;2023-01-04T04:54:35;15.43;;;12.85;;
40204;SDS011;26963;42.666;23.366;2023-01-04T04:57:01;14.27;;;12.75;;
40204;SDS011;26963;42.666;23.366;2023-01-04T04:59:27;16.55;;;12.93;;
40204;SDS011;26963;42.666;23.366;2023-01-04T05:01:52;18.42;;;12.85;;
40204;SDS011;26963;42.666;23.366;2023-01-04T05:04:18;20.60;;;14.63;;
40204;SDS011;26963;42.666;23.366;2023-01-04T05:06:47;17.45;;;13.85;;
40204;SDS011;26963;42.666;23.366;2023-01-04T05:09:13;19.88;;;14.18;;
40204;SDS011;26963;42.666;23.366;2023-01-04T05:11:39;24.52;;;15.15;;
40204;SDS011;26963;42.666;23.366;2023-01-04T05:14:23;22.23;;;14.90;;
40204;SDS011;26963;42.666;23.366;2023-01-04T05:16:49;23.17;;;14.27;;
40204;SDS011;26963;42.666;23.366;2023-01-04T05:19:14;20.90;;;15.60;;
40204;SDS011;26963;42.666;23.366;2023-01-04T05:21:40;19.05;;;14.93;;
40204;SDS011;26963;42.666;23.366;2023-01-04T05:24:06;21.08;;;15.13;;
40204;SDS011;26963;42.666;23.366;2023-01-04T05:26:36;18.15;;;13.90;;
40204;SDS011;26963;42.666;23.366;2023-01-04T05:29:02;18.73;;;13.55;;
40204;SDS011;26963;42.666;23.366;2023-01-04T05:31:28;16.67;;;13.45;;
40204;SDS011;26963;42.666;23.366;2023-01-04T05:33:54;17.58;;;14.32;;
40204;SDS011;26963;42.666;23.366;2023-01-04T05:36:19;19.20;;;14.20;;
40204;SDS011;26963;42.666;23.366;2023-01-04T05:38:45;16.75;;;13.00;;
40204;SDS011;26963;42.666;23.366;2023-01-04T05:41:10;17.60;;;13.82;;
40204;SDS011;26963;42.666;23.366;2023-01-04T05:43:54;19.73;;;13.85;;
40204;SDS011;26963;42.666;23.366;2023-01-04T05:46:20;18.80;;;14.63;;
40204;SDS011;26963;42.666;23.366;2023-01-04T05:48:46;21.05;;;16.80;;
40204;SDS011;26963;42.666;23.366;2023-01-04T05:51:11;20.42;;;14.60;;
40204;SDS011;26963;42.666;23.366;2023-01-04T05:53:37;21.63;;;13.82;;
40204;SDS011;26963;42.666;23.366;2023-01-04T05:56:03;17.67;;;14.63;;
40204;SDS011;26963;42.666;23.366;2023-01-04T05:58:28;21.58;;;14.13;;
40204;SDS011;26963;42.666;23.366;2023-01-04T06:00:54;22.38;;;14.05;;
40204;SDS011;26963;42.666;23.366;2023-01-04T06:03:19;16.05;;;13.57;;
40204;SDS011;26963;42.666;23.366;2023-01-04T06:05:49;17.23;;;13.57;;
40204;SDS011;26963;42.666;23.366;2023-01-04T06:08:15;19.90;;;14.00;;
40204;SDS011;26963;42.666;23.366;2023-01-04T06:10:44;17.00;;;13.32;;
40204;SDS011;26963;42.666;23.366;2023-01-04T06:13:16;22.55;;;14.55;;
40204;SDS011;26963;42.666;23.366;2023-01-04T06:15:43;20.35;;;12.48;;
40204;SDS011;26963;42.666;23.366;2023-01-04T06:18:09;19.33;;;13.45;;
40204;SDS011;26963;42.666;23.366;2023-01-04T06:20:35;21.75;;;14.70;;
40204;SDS011;26963;42.666;23.366;2023-01-04T06:23:00;18.65;;;14.90;;
40204;SDS011;26963;42.666;23.366;2023-01-04T06:25:25;19.42;;;13.25;;
40204;SDS011;26963;42.666;23.366;2023-01-04T06:27:51;21.25;;;14.73;;
40204;SDS011;26963;42.666;23.366;2023-01-04T06:30:17;21.73;;;14.38;;
40204;SDS011;26963;42.666;23.366;2023-01-04T06:32:42;19.88;;;14.40;;
40204;SDS011;26963;42.666;23.366;2023-01-04T06:35:08;17.42;;;13.55;;
40204;SDS011;26963;42.666;23.366;2023-01-04T06:37:33;20.35;;;14.70;;
40204;SDS011;26963;42.666;23.366;2023-01-04T06:40:00;18.42;;;14.27;;
40204;SDS011;26963;42.666;23.366;2023-01-04T06:42:25;15.40;;;13.10;;
40204;SDS011;26963;42.666;23.366;2023-01-04T06:45:09;16.60;;;14.00;;
40204;SDS011;26963;42.666;23.366;2023-01-04T06:47:35;23.05;;;13.70;;
40204;SDS011;26963;42.666;23.366;2023-01-04T06:50:00;16.85;;;13.00;;
40204;SDS011;26963;42.666;23.366;2023-01-04T06:52:26;18.27;;;13.73;;
40204;SDS011;26963;42.666;23.366;2023-01-04T06:54:51;15.88;;;13.35;;
40204;SDS011;26963;42.666;23.366;2023-01-04T06:57:20;20.85;;;14.80;;
40204;SDS011;26963;42.666;23.366;2023-01-04T06:59:45;16.50;;;12.70;;
40204;SDS011;26963;42.666;23.366;2023-01-04T07:02:14;22.45;;;13.43;;
40204;SDS011;26963;42.666;23.366;2023-01-04T07:04:40;19.77;;;14.20;;
40204;SDS011;26963;42.666;23.366;2023-01-04T07:07:07;18.95;;;15.10;;
40204;SDS011;26963;42.666;23.366;2023-01-04T07:09:32;17.35;;;13.23;;
40204;SDS011;26963;42.666;23.366;2023-01-04T07:11:58;20.08;;;14.13;;
40204;SDS011;26963;42.666;23.366;2023-01-04T07:14:24;17.60;;;13.90;;
40204;SDS011;26963;42.666;23.366;2023-01-04T07:16:49;16.52;;;12.85;;
40204;SDS011;26963;42.666;23.366;2023-01-04T07:19:15;19.33;;;14.27;;
40204;SDS011;26963;42.666;23.366;2023-01-04T07:21:40;16.60;;;13.02;;
40204;SDS011;26963;42.666;23.366;2023-01-04T07:24:09;16.58;;;13.52;;
40204;SDS011;26963;42.666;23.366;2023-01-04T07:26:34;15.80;;;13.25;;
40204;SDS011;26963;42.666;23.366;2023-01-04T07:29:00;19.13;;;13.68;;
40204;SDS011;26963;42.666;23.366;2023-01-04T07:31:46;21.23;;;13.50;;
40204;SDS011;26963;42.666;23.366;2023-01-04T07:34:13;19.60;;;12.68;;
40204;SDS011;26963;42.666;23.366;2023-01-04T07:36:39;16.45;;;11.60;;
40204;SDS011;26963;42.666;23.366;2023-01-04T07:39:05;15.98;;;11.93;;
40204;SDS011;26963;42.666;23.366;2023-01-04T07:41:34;17.38;;;11.85;;
40204;SDS011;26963;42.666;23.366;2023-01-04T07:43:59;14.93;;;12.85;;
40204;SDS011;26963;42.666;23.366;2023-01-04T07:46:25;18.48;;;12.93;;
40204;SDS011;26963;42.666;23.366;2023-01-04T07:48:52;19.17;;;12.48;;
40204;SDS011;26963;42.666;23.366;2023-01-04T07:51:17;17.85;;;12.50;;
40204;SDS011;26963;42.666;23.366;2023-01-04T07:53:43;14.55;;;11.45;;
40204;SDS011;26963;42.666;23.366;2023-01-04T07:56:08;19.08;;;12.40;;
40204;SDS011;26963;42.666;23.366;2023-01-04T07:58:34;12.70;;;11.10;;
40204;SDS011;26963;42.666;23.366;2023-01-04T08:01:06;16.90;;;12.27;;
40204;SDS011;26963;42.666;23.366;2023-01-04T08:03:32;15.88;;;12.63;;
40204;SDS011;26963;42.666;23.366;2023-01-04T08:06:01;14.40;;;12.63;;
40204;SDS011;26963;42.666;23.366;2023-01-04T08:08:27;17.70;;;12.82;;
40204;SDS011;26963;42.666;23.366;2023-01-04T08:10:53;16.80;;;13.02;;
40204;SDS011;26963;42.666;23.366;2023-01-04T08:13:18;15.90;;;13.30;;
40204;SDS011;26963;42.666;23.366;2023-01-04T08:15:44;16.10;;;12.20;;
40204;SDS011;26963;42.666;23.366;2023-01-04T08:18:16;16.17;;;11.95;;
40204;SDS011;26963;42.666;23.366;2023-01-04T08:20:42;16.48;;;13.77;;
40204;SDS011;26963;42.666;23.366;2023-01-04T08:23:07;20.33;;;15.10;;
40204;SDS011;26963;42.666;23.366;2023-01-04T08:25:33;17.27;;;12.38;;
40204;SDS011;26963;42.666;23.366;2023-01-04T08:27:58;15.40;;;13.13;;
40204;SDS011;26963;42.666;23.366;2023-01-04T08:30:24;17.25;;;14.48;;
40204;SDS011;26963;42.666;23.366;2023-01-04T08:32:49;18.13;;;14.15;;
40204;SDS011;26963;42.666;23.366;2023-01-04T08:35:17;20.23;;;14.75;;
40204;SDS011;26963;42.666;23.366;2023-01-04T08:37:47;18.92;;;13.13;;
40204;SDS011;26963;42.666;23.366;2023-01-04T08:40:12;16.13;;;12.13;;
40204;SDS011;26963;42.666;23.366;2023-01-04T08:42:37;14.35;;;12.02;;
40204;SDS011;26963;42.666;23.366;2023-01-04T08:45:03;15.77;;;11.73;;
40204;SDS011;26963;42.666;23.366;2023-01-04T08:47:30;19.23;;;12.77;;
40204;SDS011;26963;42.666;23.366;2023-01-04T08:49:57;15.98;;;12.80;;
40204;SDS011;26963;42.666;23.366;2023-01-04T08:52:23;16.38;;;12.27;;
40204;SDS011;26963;42.666;23.366;2023-01-04T08:54:49;16.83;;;12.60;;
40204;SDS011;26963;42.666;23.366;2023-01-04T08:57:15;17.40;;;13.88;;
40204;SDS011;26963;42.666;23.366;2023-01-04T08:59:41;19.02;;;13.75;;
40204;SDS011;26963;42.666;23.366;2023-01-04T09:04:49;15.05;;;12.98;;
40204;SDS011;26963;42.666;23.366;2023-01-04T09:07:15;17.73;;;13.00;;
40204;SDS011;26963;42.666;23.366;2023-01-04T09:09:41;18.98;;;15.27;;
40204;SDS011;26963;42.666;23.366;2023-01-04T09:12:07;21.02;;;14.85;;
40204;SDS011;26963;42.666;23.366;2023-01-04T09:14:33;20.90;;;14.52;;
40204;SDS011;26963;42.666;23.366;2023-01-04T09:16:58;17.13;;;13.77;;
40204;SDS011;26963;42.666;23.366;2023-01-04T09:19:24;18.25;;;13.30;;
40204;SDS011;26963;42.666;23.366;2023-01-04T09:21:49;16.33;;;13.40;;
40204;SDS011;26963;42.666;23.366;2023-01-04T09:24:15;18.08;;;13.43;;
40204;SDS011;26963;42.666;23.366;2023-01-04T09:26:44;17.88;;;13.30;;
40204;SDS011;26963;42.666;23.366;2023-01-04T09:29:11;16.45;;;13.30;;
40204;SDS011;26963;42.666;23.366;2023-01-04T09:31:37;20.60;;;13.50;;
40204;SDS011;26963;42.666;23.366;2023-01-04T09:34:02;16.88;;;13.77;;
40204;SDS011;26963;42.666;23.366;2023-01-04T09:36:28;18.00;;;14.93;;
40204;SDS011;26963;42.666;23.366;2023-01-04T09:38:53;21.88;;;14.60;;
40204;SDS011;26963;42.666;23.366;2023-01-04T09:46:38;16.63;;;12.18;;
40204;SDS011;26963;42.666;23.366;2023-01-04T09:51:59;13.48;;;11.52;;
40204;SDS011;26963;42.666;23.366;2023-01-04T09:57:30;21.80;;;12.52;;
40204;SDS011;26963;42.666;23.366;2023-01-04T10:00:02;16.80;;;12.73;;
40204;SDS011;26963;42.666;23.366;2023-01-04T10:05:20;18.42;;;12.40;;
40204;SDS011;26963;42.666;23.366;2023-01-04T10:07:48;20.42;;;12.40;;
40204;SDS011;26963;42.666;23.366;2023-01-04T10:10:15;19.88;;;12.48;;
40204;SDS011;26963;42.666;23.366;2023-01-04T10:12:50;17.30;;;12.23;;
40204;SDS011;26963;42.666;23.366;2023-01-04T10:26:10;14.63;;;11.32;;
40204;SDS011;26963;42.666;23.366;2023-01-04T10:31:12;14.43;;;11.87;;
40204;SDS011;26963;42.666;23.366;2023-01-04T10:36:19;15.95;;;11.85;;
40204;SDS011;26963;42.666;23.366;2023-01-04T10:38:54;16.35;;;11.25;;
40204;SDS011;26963;42.666;23.366;2023-01-04T10:41:23;15.38;;;11.98;;
40204;SDS011;26963;42.666;23.366;2023-01-04T10:46:32;15.90;;;11.45;;
40204;SDS011;26963;42.666;23.366;2023-01-04T10:49:16;16.95;;;11.80;;
40204;SDS011;26963;42.666;23.366;2023-01-04T10:51:58;16.75;;;11.88;;
40204;SDS011;26963;42.666;23.366;2023-01-04T10:59:46;15.60;;;12.10;;
40204;SDS011;26963;42.666;23.366;2023-01-04T11:02:36;16.85;;;11.73;;
40204;SDS011;26963;42.666;23.366;2023-01-04T11:07:39;14.88;;;10.63;;
40204;SDS011;26963;42.666;23.366;2023-01-04T11:10:46;12.65;;;10.27;;
40204;SDS011;26963;42.666;23.366;2023-01-04T11:13:10;14.10;;;10.85;;
40204;SDS011;26963;42.666;23.366;2023-01-04T11:15:39;14.98;;;11.00;;
40204;SDS011;26963;42.666;23.366;2023-01-04T11:18:06;13.10;;;10.88;;
40204;SDS011;26963;42.666;23.366;2023-01-04T11:20:35;14.18;;;11.35;;
40204;SDS011;26963;42.666;23.366;2023-01-04T11:23:09;15.93;;;11.50;;
40204;SDS011;26963;42.666;23.366;2023-01-04T11:28:26;15.52;;;10.65;;
40204;SDS011;26963;42.666;23.366;2023-01-04T11:31:02;13.55;;;10.23;;
40204;SDS011;26963;42.666;23.366;2023-01-04T11:33:57;14.45;;;10.73;;
40204;SDS011;26963;42.666;23.366;2023-01-04T11:36:38;12.98;;;10.80;;
40204;SDS011;26963;42.666;23.366;2023-01-04T11:39:22;14.18;;;11.13;;
40204;SDS011;26963;42.666;23.366;2023-01-04T11:41:59;13.93;;;11.25;;
40204;SDS011;26963;42.666;23.366;2023-01-04T11:44:28;13.63;;;10.98;;
40204;SDS011;26963;42.666;23.366;2023-01-04T11:47:20;18.27;;;11.80;;
40204;SDS011;26963;42.666;23.366;2023-01-04T11:49:50;15.10;;;11.05;;
40204;SDS011;26963;42.666;23.366;2023-01-04T11:52:32;12.60;;;10.15;;
40204;SDS011;26963;42.666;23.366;2023-01-04T11:55:14;13.65;;;10.50;;
40204;SDS011;26963;42.666;23.366;2023-01-04T11:57:46;14.65;;;10.55;;
40204;SDS011;26963;42.666;23.366;2023-01-04T12:00:13;13.65;;;11.25;;
40204;SDS011;26963;42.666;23.366;2023-01-04T12:02:39;15.95;;;11.32;;
40204;SDS011;26963;42.666;23.366;2023-01-04T12:05:16;12.88;;;10.38;;
40204;SDS011;26963;42.666;23.366;2023-01-04T12:07:44;13.55;;;10.93;;
40204;SDS011;26963;42.666;23.366;2023-01-04T12:10:20;13.50;;;10.90;;
40204;SDS011;26963;42.666;23.366;2023-01-04T12:12:50;14.80;;;10.63;;
40204;SDS011;26963;42.666;23.366;2023-01-04T12:15:17;14.75;;;10.73;;
40204;SDS011;26963;42.666;23.366;2023-01-04T12:18:00;14.50;;;10.77;;
40204;SDS011;26963;42.666;23.366;2023-01-04T12:20:35;12.70;;;10.05;;
40204;SDS011;26963;42.666;23.366;2023-01-04T12:23:01;14.48;;;11.25;;
40204;SDS011;26963;42.666;23.366;2023-01-04T12:28:36;13.30;;;10.63;;
40204;SDS011;26963;42.666;23.366;2023-01-04T12:36:18;12.48;;;10.35;;
40204;SDS011;26963;42.666;23.366;2023-01-04T12:41:23;13.38;;;10.45;;
40204;SDS011;26963;42.666;23.366;2023-01-04T12:50:17;15.88;;;10.50;;
40204;SDS011;26963;42.666;23.366;2023-01-04T12:55:55;16.05;;;11.40;;
40204;SDS011;26963;42.666;23.366;2023-01-04T13:05:59;13.65;;;11.27;;
40204;SDS011;26963;42.666;23.366;2023-01-04T13:08:27;14.88;;;10.90;;
40204;SDS011;26963;42.666;23.366;2023-01-04T13:10:57;15.88;;;11.05;;
40204;SDS011;26963;42.666;23.366;2023-01-04T13:19:09;13.25;;;9.88;;
40204;SDS011;26963;42.666;23.366;2023-01-04T13:21:44;14.27;;;10.85;;
40204;SDS011;26963;42.666;23.366;2023-01-04T13:26:47;17.23;;;10.98;;
40204;SDS011;26963;42.666;23.366;2023-01-04T13:31:45;13.32;;;11.02;;
40204;SDS011;26963;42.666;23.366;2023-01-04T13:34:26;17.13;;;12.20;;
40204;SDS011;26963;42.666;23.366;2023-01-04T13:36:57;15.43;;;12.23;;
40204;SDS011;26963;42.666;23.366;2023-01-04T13:39:24;19.60;;;13.77;;
40204;SDS011;26963;42.666;23.366;2023-01-04T13:41:49;19.85;;;14.10;;
40204;SDS011;26963;42.666;23.366;2023-01-04T13:44:31;20.45;;;13.23;;
40204;SDS011;26963;42.666;23.366;2023-01-04T13:47:16;21.58;;;12.55;;
40204;SDS011;26963;42.666;23.366;2023-01-04T13:49:42;16.05;;;12.82;;
40204;SDS011;26963;42.666;23.366;2023-01-04T13:52:21;17.48;;;12.48;;
40204;SDS011;26963;42.666;23.366;2023-01-04T13:57:16;15.93;;;12.40;;
40204;SDS011;26963;42.666;23.366;2023-01-04T13:59:48;19.75;;;12.95;;
40204;SDS011;26963;42.666;23.366;2023-01-04T14:02:19;17.73;;;12.63;;
40204;SDS011;26963;42.666;23.366;2023-01-04T14:04:46;21.33;;;13.75;;
40204;SDS011;26963;42.666;23.366;2023-01-04T14:07:20;16.58;;;13.00;;
40204;SDS011;26963;42.666;23.366;2023-01-04T14:09:49;19.20;;;12.50;;
40204;SDS011;26963;42.666;23.366;2023-01-04T14:12:21;19.83;;;12.98;;
40204;SDS011;26963;42.666;23.366;2023-01-04T14:19:56;21.63;;;13.25;;
40204;SDS011;26963;42.666;23.366;2023-01-04T14:22:26;19.85;;;12.27;;
40204;SDS011;26963;42.666;23.366;2023-01-04T14:24:58;16.77;;;12.27;;
40204;SDS011;26963;42.666;23.366;2023-01-04T14:29:57;17.27;;;13.00;;
40204;SDS011;26963;42.666;23.366;2023-01-04T14:32:23;15.85;;;12.18;;
40204;SDS011;26963;42.666;23.366;2023-01-04T14:34:49;18.00;;;12.48;;
40204;SDS011;26963;42.666;23.366;2023-01-04T14:37:14;21.73;;;12.07;;
40204;SDS011;26963;42.666;23.366;2023-01-04T14:39:40;16.52;;;12.50;;
40204;SDS011;26963;42.666;23.366;2023-01-04T14:44:57;15.97;;;12.47;;
40204;SDS011;26963;42.666;23.366;2023-01-04T14:47:23;18.42;;;12.80;;
40204;SDS011;26963;42.666;23.366;2023-01-04T14:49:49;19.25;;;13.25;;
40204;SDS011;26963;42.666;23.366;2023-01-04T14:52:19;16.75;;;12.25;;
40204;SDS011;26963;42.666;23.366;2023-01-04T14:54:50;21.02;;;12.27;;
40204;SDS011;26963;42.666;23.366;2023-01-04T14:57:15;18.85;;;12.43;;
40204;SDS011;26963;42.666;23.366;2023-01-04T14:59:44;18.02;;;13.23;;
40204;SDS011;26963;42.666;23.366;2023-01-04T15:02:10;17.13;;;11.25;;
40204;SDS011;26963;42.666;23.366;2023-01-04T15:04:36;17.83;;;13.02;;
40204;SDS011;26963;42.666;23.366;2023-01-04T15:07:02;21.30;;;13.20;;
40204;SDS011;26963;42.666;23.366;2023-01-04T15:09:27;19.55;;;13.38;;
40204;SDS011;26963;42.666;23.366;2023-01-04T15:11:54;18.70;;;13.82;;
40204;SDS011;26963;42.666;23.366;2023-01-04T15:14:20;19.92;;;13.63;;
40204;SDS011;26963;42.666;23.366;2023-01-04T15:16:45;23.58;;;13.75;;
40204;SDS011;26963;42.666;23.366;2023-01-04T15:19:11;20.27;;;13.73;;
40204;SDS011;26963;42.666;23.366;2023-01-04T15:21:37;17.05;;;13.43;;
40204;SDS011;26963;42.666;23.366;2023-01-04T15:24:04;19.05;;;13.93;;
40204;SDS011;26963;42.666;23.366;2023-01-04T15:26:30;17.45;;;14.00;;
40204;SDS011;26963;42.666;23.366;2023-01-04T15:28:56;19.15;;;14.43;;
40204;SDS011;26963;42.666;23.366;2023-01-04T15:31:22;20.45;;;13.73;;
40204;SDS011;26963;42.666;23.366;2023-01-04T15:33:50;27.45;;;14.35;;
40204;SDS011;26963;42.666;23.366;2023-01-04T15:36:19;21.45;;;14.32;;
40204;SDS011;26963;42.666;23.366;2023-01-04T15:38:44;24.08;;;15.30;;
40204;SDS011;26963;42.666;23.366;2023-01-04T15:41:11;22.75;;;14.70;;
40204;SDS011;26963;42.666;23.366;2023-01-04T15:43:58;21.35;;;15.07;;
40204;SDS011;26963;42.666;23.366;2023-01-04T15:46:24;22.48;;;15.55;;
40204;SDS011;26963;42.666;23.366;2023-01-04T15:48:49;19.77;;;14.88;;
40204;SDS011;26963;42.666;23.366;2023-01-04T15:51:15;24.17;;;15.75;;
40204;SDS011;26963;42.666;23.366;2023-01-04T15:53:40;24.27;;;15.65;;
40204;SDS011;26963;42.666;23.366;2023-01-04T15:56:09;21.30;;;16.55;;
40204;SDS011;26963;42.666;23.366;2023-01-04T15:58:37;25.65;;;16.98;;
40204;SDS011;26963;42.666;23.366;2023-01-04T16:01:10;23.05;;;17.70;;
40204;SDS011;26963;42.666;23.366;2023-01-04T16:03:37;30.13;;;18.65;;
40204;SDS011;26963;42.666;23.366;2023-01-04T16:06:06;24.52;;;16.70;;
40204;SDS011;26963;42.666;23.366;2023-01-04T16:08:34;26.52;;;18.23;;
40204;SDS011;26963;42.666;23.366;2023-01-04T16:11:06;24.00;;;17.48;;
40204;SDS011;26963;42.666;23.366;2023-01-04T16:13:46;23.27;;;17.35;;
40204;SDS011;26963;42.666;23.366;2023-01-04T16:16:13;28.05;;;17.00;;
40204;SDS011;26963;42.666;23.366;2023-01-04T16:18:43;27.75;;;16.50;;
40204;SDS011;26963;42.666;23.366;2023-01-04T16:21:10;23.88;;;17.17;;
40204;SDS011;26963;42.666;23.366;2023-01-04T16:23:36;24.67;;;17.45;;
40204;SDS011;26963;42.666;23.366;2023-01-04T16:26:12;25.55;;;17.73;;
40204;SDS011;26963;42.666;23.366;2023-01-04T16:28:39;22.90;;;16.95;;